createdAt,value
2023-10-23T00:00:00.160Z,0.8
2023-10-23T00:05:00.260Z,0.7
2023-10-23T00:10:00.071Z,0.7
2023-10-23T00:15:00.076Z,0.6
2023-10-23T00:20:00.136Z,0.6
2023-10-23T00:25:01.093Z,0.6
2023-10-23T00:30:00.068Z,0.7
2023-10-23T00:35:00.086Z,0.8
2023-10-23T00:40:00.104Z,0.8
2023-10-23T00:45:00.079Z,0.7
2023-10-23T00:50:00.094Z,0.7
2023-10-23T00:55:00.104Z,0.6
2023-10-23T01:00:00.157Z,0.5
2023-10-23T01:05:00.082Z,0.5
2023-10-23T01:10:00.080Z,0.6
2023-10-23T01:15:00.088Z,0.6
2023-10-23T01:20:00.111Z,0.6
2023-10-23T01:25:00.127Z,0.4
2023-10-23T01:30:00.096Z,0.8
2023-10-23T01:35:00.105Z,0.7
2023-10-23T01:40:00.122Z,0.7
2023-10-23T01:45:00.117Z,0.5
2023-10-23T01:50:00.092Z,0.6
2023-10-23T01:55:00.149Z,0.5
2023-10-23T02:00:00.118Z,0.5
2023-10-23T02:05:00.082Z,0.6
2023-10-23T02:10:15.588Z,0.7
2023-10-23T02:15:00.090Z,0.5
2023-10-23T02:20:00.105Z,0.6
2023-10-23T02:25:00.120Z,0.5
2023-10-23T02:30:00.083Z,0.6
2023-10-23T02:35:00.115Z,0.5
2023-10-23T02:40:00.135Z,0.6
2023-10-23T02:45:00.097Z,0.7
2023-10-23T02:50:00.090Z,0.7
2023-10-23T02:55:00.125Z,0.5
2023-10-23T03:00:00.153Z,0.4
2023-10-23T03:05:00.097Z,0.6
2023-10-23T03:10:00.116Z,0.6
2023-10-23T03:15:00.093Z,0.8
2023-10-23T03:20:00.120Z,0.7
2023-10-23T03:25:00.121Z,0.6
2023-10-23T03:30:00.119Z,0.6
2023-10-23T03:35:00.090Z,0.6
2023-10-23T03:40:00.143Z,0.7
2023-10-23T03:45:00.085Z,0.5
2023-10-23T03:50:00.081Z,0.6
2023-10-23T03:55:00.194Z,0.5
2023-10-23T04:00:00.163Z,0.6
2023-10-23T04:05:00.079Z,0.6
2023-10-23T04:10:00.169Z,0.7
2023-10-23T04:15:00.079Z,0.6
2023-10-23T04:20:00.112Z,0.8
2023-10-23T04:25:00.160Z,0.7
2023-10-23T04:30:00.093Z,0.7
2023-10-23T04:35:00.089Z,0.8
2023-10-23T04:40:00.144Z,0.7
2023-10-23T04:45:00.094Z,0.6
2023-10-23T04:50:00.112Z,0.9
2023-10-23T04:55:00.116Z,0.7
2023-10-23T05:00:00.156Z,0.7
2023-10-23T05:05:00.155Z,0.7
2023-10-23T05:10:00.211Z,0.7
2023-10-23T05:15:00.103Z,0.8
2023-10-23T05:20:00.120Z,0.8
2023-10-23T05:25:00.155Z,0.8
2023-10-23T05:30:00.099Z,0.7
2023-10-23T05:35:00.092Z,0.8
2023-10-23T05:40:00.162Z,0.7
2023-10-23T05:45:00.105Z,0.6
2023-10-23T05:50:00.111Z,0.9
2023-10-23T05:55:01.897Z,0.8
2023-10-23T06:00:00.115Z,0.7
2023-10-23T06:05:00.084Z,0.7
2023-10-23T06:10:00.201Z,0.7
2023-10-23T06:15:00.186Z,0.8
2023-10-23T06:20:00.140Z,0.8
2023-10-23T06:25:00.089Z,0.8
2023-10-23T06:30:00.100Z,0.8
2023-10-23T06:35:00.073Z,0.7
2023-10-23T06:40:00.100Z,0.7
2023-10-23T06:45:00.122Z,0.9
2023-10-23T06:50:00.079Z,0.8
2023-10-23T06:55:00.065Z,0.9
2023-10-23T07:00:00.170Z,0.9
2023-10-23T07:05:00.076Z,0.9
2023-10-23T07:10:00.542Z,0.8
2023-10-23T07:15:00.129Z,0.6
2023-10-23T07:20:00.135Z,0.8
2023-10-23T07:25:00.079Z,0.8
2023-10-23T07:30:00.114Z,0.8
2023-10-23T07:35:00.092Z,1
2023-10-23T07:40:00.150Z,0.8
2023-10-23T07:45:00.073Z,1.2
2023-10-23T07:50:00.075Z,1.3
2023-10-23T07:55:00.112Z,1.3
2023-10-23T08:00:00.097Z,1.1
2023-10-23T08:05:00.129Z,1.4
2023-10-23T08:10:00.124Z,1.3
2023-10-23T08:15:00.064Z,1.5
2023-10-23T08:20:00.316Z,1.4
2023-10-23T08:25:00.103Z,2.2
2023-10-23T08:30:00.090Z,1.4
2023-10-23T08:35:00.064Z,3.8
2023-10-23T08:40:00.160Z,1.2
2023-10-23T08:45:00.070Z,1.4
2023-10-23T08:50:00.059Z,1.4
2023-10-23T08:55:00.131Z,1.3
2023-10-23T09:00:00.191Z,1.4
2023-10-23T09:05:00.167Z,1.6
2023-10-23T09:10:00.115Z,1.3
2023-10-23T09:15:00.065Z,1.4
2023-10-23T09:20:00.128Z,1.8
2023-10-23T09:25:00.080Z,1.5
2023-10-23T09:30:00.073Z,1.7
2023-10-23T09:35:00.108Z,1.4
2023-10-23T09:40:00.378Z,1.8
2023-10-23T09:45:00.174Z,1.4
2023-10-23T09:50:00.146Z,1.6
2023-10-23T09:55:00.096Z,1.5
2023-10-23T10:00:00.125Z,1.4
2023-10-23T10:05:00.095Z,1.2
2023-10-23T10:10:00.083Z,1
2023-10-23T10:15:00.065Z,1
2023-10-23T10:20:00.137Z,1.3
2023-10-23T10:25:00.093Z,0.8
2023-10-23T10:30:00.068Z,1
2023-10-23T10:35:00.231Z,0.8
2023-10-23T10:40:00.110Z,0.9
2023-10-23T10:45:00.075Z,0.8
2023-10-23T10:50:00.066Z,0.7
2023-10-23T10:55:00.089Z,0.7
2023-10-23T11:00:00.098Z,0.7
2023-10-23T11:05:00.070Z,0.9
2023-10-23T11:10:00.108Z,0.6
2023-10-23T11:15:00.066Z,0.6
2023-10-23T11:20:00.095Z,0.7
2023-10-23T11:25:00.091Z,0.6
2023-10-23T11:30:00.067Z,0.6
2023-10-23T11:35:00.073Z,0.7
2023-10-23T11:40:00.109Z,0.7
2023-10-23T11:45:00.068Z,0.9
2023-10-23T11:50:00.063Z,0.7
2023-10-23T11:55:00.097Z,0.5
2023-10-23T12:00:00.222Z,0.6
2023-10-23T12:05:00.154Z,0.6
2023-10-23T12:10:00.112Z,0.5
2023-10-23T12:15:00.071Z,0.6
2023-10-23T12:20:00.118Z,0.6
2023-10-23T12:25:00.117Z,0.5
2023-10-23T12:30:00.128Z,0.6
2023-10-23T12:35:00.204Z,0.7
2023-10-23T12:40:00.195Z,0.6
2023-10-23T12:45:00.098Z,0.6
2023-10-23T12:50:00.065Z,0.7
2023-10-23T12:55:00.162Z,0.6
2023-10-23T13:00:00.089Z,0.7
2023-10-23T13:05:00.121Z,0.6
2023-10-23T13:10:00.083Z,0.7
2023-10-23T13:15:00.084Z,0.7
2023-10-23T13:20:52.224Z,0.8
2023-10-23T13:25:00.113Z,0.9
2023-10-23T13:30:00.066Z,0.9
2023-10-23T13:35:00.068Z,1
2023-10-23T13:40:00.227Z,1.3
2023-10-23T13:45:00.076Z,1.1
2023-10-23T13:50:00.090Z,1.1
2023-10-23T13:55:00.071Z,1.2
2023-10-23T14:00:00.096Z,0.9
2023-10-23T14:05:00.122Z,0.9
2023-10-23T14:10:00.073Z,0.8
2023-10-23T14:15:00.080Z,0.9
2023-10-23T14:20:00.120Z,1.1
2023-10-23T14:25:00.081Z,1.1
2023-10-23T14:30:00.087Z,0.9
2023-10-23T14:35:00.078Z,1
2023-10-23T14:40:00.192Z,1
2023-10-23T14:45:00.082Z,0.9
2023-10-23T14:50:00.073Z,1
2023-10-23T14:55:00.098Z,1.2
2023-10-23T15:00:00.208Z,1
2023-10-23T15:05:00.099Z,1
2023-10-23T15:10:00.119Z,0.9
2023-10-23T15:15:00.074Z,0.9
2023-10-23T15:20:00.135Z,1
2023-10-23T15:25:00.095Z,0.8
2023-10-23T15:30:00.078Z,1
2023-10-23T15:35:00.095Z,0.8
2023-10-23T15:40:00.128Z,0.8
2023-10-23T15:45:00.089Z,0.9
2023-10-23T15:50:00.092Z,1
2023-10-23T15:55:00.102Z,0.7
2023-10-23T16:00:00.120Z,0.9
2023-10-23T16:05:00.101Z,1
2023-10-23T16:10:00.121Z,1
2023-10-23T16:15:00.314Z,0.8
2023-10-23T16:20:00.111Z,1
2023-10-23T16:25:00.103Z,0.9
2023-10-23T16:30:00.112Z,0.9
2023-10-23T16:35:00.092Z,1.1
2023-10-23T16:40:00.152Z,0.8
2023-10-23T16:45:00.251Z,0.6
2023-10-23T16:50:00.093Z,0.9
2023-10-23T16:55:00.136Z,1
2023-10-23T17:00:00.126Z,0.9
2023-10-23T17:05:00.111Z,0.8
2023-10-23T17:10:00.142Z,0.8
2023-10-23T17:15:00.100Z,1
2023-10-23T17:20:00.142Z,0.8
2023-10-23T17:25:00.147Z,0.8
2023-10-23T17:30:00.097Z,0.8
2023-10-23T17:35:00.095Z,0.8
2023-10-23T17:40:00.155Z,1
2023-10-23T17:45:00.083Z,0.7
2023-10-23T17:50:00.101Z,1.6
2023-10-23T17:55:00.177Z,2
2023-10-23T18:00:00.126Z,1.5
2023-10-23T18:05:00.073Z,1.1
2023-10-23T18:10:01.102Z,1
2023-10-23T18:15:00.091Z,0.8
2023-10-23T18:20:00.116Z,0.8
2023-10-23T18:25:00.142Z,0.8
2023-10-23T18:30:00.084Z,0.8
2023-10-23T18:35:00.079Z,0.9
2023-10-23T18:40:00.285Z,0.6
2023-10-23T18:45:00.197Z,1.1
2023-10-23T18:50:00.071Z,1
2023-10-23T18:55:00.099Z,1
2023-10-23T19:00:00.132Z,1
2023-10-23T19:05:00.071Z,0.9
2023-10-23T19:10:00.239Z,0.9
2023-10-23T19:15:00.069Z,1
2023-10-23T19:20:00.104Z,1.3
2023-10-23T19:25:00.073Z,1.3
2023-10-23T19:30:00.087Z,1.6
2023-10-23T19:35:00.085Z,1.3
2023-10-23T19:40:00.144Z,1.2
2023-10-23T19:45:00.086Z,1.1
2023-10-23T19:50:00.088Z,1.2
2023-10-23T19:55:02.005Z,1.3
2023-10-23T20:00:00.145Z,1.4
2023-10-23T20:05:00.215Z,1.4
2023-10-23T20:10:00.143Z,1.3
2023-10-23T20:15:00.101Z,1.3
2023-10-23T20:20:00.162Z,1.3
2023-10-23T20:25:00.129Z,1.4
2023-10-23T20:30:00.130Z,1.7
2023-10-23T20:35:00.119Z,1.3
2023-10-23T20:40:00.275Z,1.9
2023-10-23T20:45:00.109Z,1.6
2023-10-23T20:50:00.086Z,1.6
2023-10-23T20:55:00.160Z,1.7
2023-10-23T21:00:00.111Z,1.6
2023-10-23T21:05:00.072Z,1.6
2023-10-23T21:10:00.070Z,2
2023-10-23T21:15:00.060Z,1.8
2023-10-23T21:20:00.150Z,1.9
2023-10-23T21:25:00.072Z,2
2023-10-23T21:30:00.086Z,1.8
2023-10-23T21:35:00.090Z,1.8
2023-10-23T21:40:00.118Z,1.7
2023-10-23T21:45:00.082Z,1.9
2023-10-23T21:50:00.223Z,1.7
2023-10-23T21:55:02.713Z,2
2023-10-23T22:00:00.158Z,2.1
2023-10-23T22:05:00.076Z,2.6
2023-10-23T22:10:00.087Z,2.1
2023-10-23T22:15:00.103Z,1.9
2023-10-23T22:20:00.101Z,1.8
2023-10-23T22:25:00.077Z,1.7
2023-10-23T22:30:00.074Z,1.8
2023-10-23T22:35:00.076Z,1.5
2023-10-23T22:40:00.119Z,2.1
2023-10-23T22:45:00.103Z,2
2023-10-23T22:50:00.147Z,1.8
2023-10-23T22:55:00.187Z,1.7
2023-10-23T23:00:00.132Z,1.6
2023-10-23T23:05:00.135Z,1.7
2023-10-23T23:10:00.088Z,1.6
2023-10-23T23:15:00.098Z,1.7
2023-10-23T23:20:00.116Z,1.8
2023-10-23T23:25:00.098Z,1.5
2023-10-23T23:30:00.129Z,1.6
2023-10-23T23:35:00.089Z,1.9
2023-10-23T23:40:00.119Z,1.8
2023-10-23T23:45:00.093Z,1.4
2023-10-23T23:50:00.092Z,1.7
2023-10-23T23:55:00.081Z,1.7
